sensor_id;sensor_type;location;lat;lon;timestamp;pressure;altitude;pressure_sealevel;temperature;humidity
74230;BME280;62589;12.568;99.958;2024-03-02T00:00:55;100948.50;;;33.75;49.80
74230;BME280;62589;12.568;99.958;2024-03-02T00:03:25;100949.31;;;33.76;49.65
74230;BME280;62589;12.568;99.958;2024-03-02T00:05:52;100953.31;;;33.78;49.72
74230;BME280;62589;12.568;99.958;2024-03-02T00:08:25;100943.00;;;33.79;50.04
74230;BME280;62589;12.568;99.958;2024-03-02T00:10:56;100948.13;;;33.77;49.74
74230;BME280;62589;12.568;99.958;2024-03-02T00:13:29;100944.91;;;33.71;50.10
74230;BME280;62589;12.568;99.958;2024-03-02T00:16:00;100952.88;;;33.76;49.68
74230;BME280;62589;12.568;99.958;2024-03-02T00:18:34;100960.50;;;33.79;49.83
74230;BME280;62589;12.568;99.958;2024-03-02T00:21:03;100958.16;;;33.85;49.93
74230;BME280;62589;12.568;99.958;2024-03-02T00:23:33;100955.75;;;33.91;49.85
74230;BME280;62589;12.568;99.958;2024-03-02T00:26:06;100967.34;;;34.00;49.67
74230;BME280;62589;12.568;99.958;2024-03-02T00:28:36;100965.00;;;34.05;49.35
74230;BME280;62589;12.568;99.958;2024-03-02T00:31:12;100973.34;;;34.09;49.48
74230;BME280;62589;12.568;99.958;2024-03-02T00:34:00;100973.38;;;34.12;48.38
74230;BME280;62589;12.568;99.958;2024-03-02T00:36:32;100980.16;;;34.15;48.53
74230;BME280;62589;12.568;99.958;2024-03-02T00:39:00;100981.38;;;34.21;48.20
74230;BME280;62589;12.568;99.958;2024-03-02T00:41:31;100988.94;;;34.24;48.80
74230;BME280;62589;12.568;99.958;2024-03-02T00:44:11;100994.94;;;34.30;49.47
74230;BME280;62589;12.568;99.958;2024-03-02T00:46:41;100995.78;;;34.37;49.44
74230;BME280;62589;12.568;99.958;2024-03-02T00:49:23;100998.19;;;34.42;49.65
74230;BME280;62589;12.568;99.958;2024-03-02T00:51:55;100999.41;;;34.49;49.77
74230;BME280;62589;12.568;99.958;2024-03-02T00:54:25;101003.78;;;34.57;49.25
74230;BME280;62589;12.568;99.958;2024-03-02T00:56:56;101011.78;;;34.62;49.61
74230;BME280;62589;12.568;99.958;2024-03-02T00:59:23;101019.75;;;34.67;48.49
74230;BME280;62589;12.568;99.958;2024-03-02T01:01:52;101023.34;;;34.74;48.10
74230;BME280;62589;12.568;99.958;2024-03-02T01:04:20;101024.59;;;34.80;47.61
74230;BME280;62589;12.568;99.958;2024-03-02T01:06:47;101021.00;;;34.84;47.19
74230;BME280;62589;12.568;99.958;2024-03-02T01:09:14;101026.22;;;34.89;46.74
74230;BME280;62589;12.568;99.958;2024-03-02T01:11:43;101030.19;;;34.88;46.60
74230;BME280;62589;12.568;99.958;2024-03-02T01:14:11;101030.97;;;34.95;46.43
74230;BME280;62589;12.568;99.958;2024-03-02T01:16:41;101031.41;;;35.01;45.96
74230;BME280;62589;12.568;99.958;2024-03-02T01:19:09;101031.78;;;35.03;46.14
74230;BME280;62589;12.568;99.958;2024-03-02T01:21:38;101034.19;;;35.04;45.99
74230;BME280;62589;12.568;99.958;2024-03-02T01:24:05;101042.16;;;35.13;46.13
74230;BME280;62589;12.568;99.958;2024-03-02T01:26:31;101042.97;;;35.21;46.00
74230;BME280;62589;12.568;99.958;2024-03-02T01:28:59;101039.03;;;35.32;46.36
74230;BME280;62589;12.568;99.958;2024-03-02T01:31:25;101029.03;;;35.42;46.10
74230;BME280;62589;12.568;99.958;2024-03-02T01:33:57;101036.22;;;35.54;46.18
74230;BME280;62589;12.568;99.958;2024-03-02T01:36:27;101034.59;;;35.63;45.85
74230;BME280;62589;12.568;99.958;2024-03-02T01:38:54;101038.97;;;35.71;45.55
74230;BME280;62589;12.568;99.958;2024-03-02T01:41:22;101041.78;;;35.71;45.33
74230;BME280;62589;12.568;99.958;2024-03-02T02:25:02;101085.94;;;36.37;42.27
74230;BME280;62589;12.568;99.958;2024-03-02T02:27:29;101077.81;;;36.64;42.51
74230;BME280;62589;12.568;99.958;2024-03-02T02:29:56;101081.41;;;36.68;42.12
74230;BME280;62589;12.568;99.958;2024-03-02T02:32:23;101075.00;;;36.71;42.18
74230;BME280;62589;12.568;99.958;2024-03-02T02:34:53;101085.72;;;36.87;42.41
74230;BME280;62589;12.568;99.958;2024-03-02T02:37:19;101076.09;;;36.91;42.25
74230;BME280;62589;12.568;99.958;2024-03-02T02:39:46;101080.81;;;37.01;42.12
74230;BME280;62589;12.568;99.958;2024-03-02T02:42:13;101073.97;;;37.09;42.23
74230;BME280;62589;12.568;99.958;2024-03-02T02:44:40;101080.28;;;37.21;42.19
74230;BME280;62589;12.568;99.958;2024-03-02T02:47:07;101072.31;;;37.15;41.83
74230;BME280;62589;12.568;99.958;2024-03-02T02:49:34;101093.03;;;37.29;41.89
74230;BME280;62589;12.568;99.958;2024-03-02T02:52:01;101086.53;;;37.42;41.65
74230;BME280;62589;12.568;99.958;2024-03-02T02:54:27;101080.13;;;37.42;41.44
74230;BME280;62589;12.568;99.958;2024-03-02T02:56:54;101083.31;;;37.44;40.84
74230;BME280;62589;12.568;99.958;2024-03-02T02:59:21;101079.59;;;37.58;41.39
74230;BME280;62589;12.568;99.958;2024-03-02T03:01:47;101079.22;;;37.56;41.16
74230;BME280;62589;12.568;99.958;2024-03-02T03:09:26;101070.72;;;37.66;41.43
74230;BME280;62589;12.568;99.958;2024-03-02T03:11:54;101063.06;;;37.74;42.50
74230;BME280;62589;12.568;99.958;2024-03-02T03:14:21;101069.88;;;37.73;42.72
74230;BME280;62589;12.568;99.958;2024-03-02T03:16:51;101060.59;;;37.79;42.63
74230;BME280;62589;12.568;99.958;2024-03-02T03:19:18;101052.94;;;37.83;42.58
74230;BME280;62589;12.568;99.958;2024-03-02T03:21:45;101052.06;;;37.90;42.30
74230;BME280;62589;12.568;99.958;2024-03-02T03:24:15;101057.66;;;37.90;43.21
74230;BME280;62589;12.568;99.958;2024-03-02T03:26:43;101062.66;;;37.75;42.70
74230;BME280;62589;12.568;99.958;2024-03-02T03:29:13;101061.31;;;37.87;43.19
74230;BME280;62589;12.568;99.958;2024-03-02T03:31:40;101057.63;;;37.94;43.37
74230;BME280;62589;12.568;99.958;2024-03-02T03:34:07;101052.94;;;37.83;43.58
74230;BME280;62589;12.568;99.958;2024-03-02T03:36:34;101055.63;;;37.94;43.77
74230;BME280;62589;12.568;99.958;2024-03-02T03:39:00;101050.00;;;37.98;43.16
74230;BME280;62589;12.568;99.958;2024-03-02T03:41:29;101055.97;;;38.00;43.07
74230;BME280;62589;12.568;99.958;2024-03-02T03:43:59;101055.22;;;37.96;43.61
74230;BME280;62589;12.568;99.958;2024-03-02T03:46:26;101057.94;;;38.03;43.72
74230;BME280;62589;12.568;99.958;2024-03-02T03:48:52;101050.38;;;38.00;43.76
74230;BME280;62589;12.568;99.958;2024-03-02T03:51:19;101050.81;;;37.95;43.42
74230;BME280;62589;12.568;99.958;2024-03-02T03:53:46;101049.19;;;37.97;43.62
74230;BME280;62589;12.568;99.958;2024-03-02T03:56:12;101044.88;;;37.89;43.35
74230;BME280;62589;12.568;99.958;2024-03-02T03:58:39;101034.19;;;37.80;43.83
74230;BME280;62589;12.568;99.958;2024-03-02T04:01:06;101048.41;;;37.56;44.68
74230;BME280;62589;12.568;99.958;2024-03-02T04:11:20;101024.69;;;37.67;44.19
74230;BME280;62589;12.568;99.958;2024-03-02T04:13:47;101012.38;;;37.58;43.93
74230;BME280;62589;12.568;99.958;2024-03-02T04:16:14;101008.19;;;37.35;44.14
74230;BME280;62589;12.568;99.958;2024-03-02T04:18:41;101006.81;;;37.54;44.87
74230;BME280;62589;12.568;99.958;2024-03-02T04:21:07;101004.38;;;37.56;45.18
74230;BME280;62589;12.568;99.958;2024-03-02T04:23:34;101010.03;;;37.49;44.45
74230;BME280;62589;12.568;99.958;2024-03-02T04:26:00;101010.75;;;37.60;44.77
74230;BME280;62589;12.568;99.958;2024-03-02T04:28:27;101007.84;;;37.71;44.46
74230;BME280;62589;12.568;99.958;2024-03-02T04:30:54;101007.50;;;37.65;45.11
74230;BME280;62589;12.568;99.958;2024-03-02T04:33:21;101000.78;;;37.56;45.20
74230;BME280;62589;12.568;99.958;2024-03-02T04:35:47;101001.97;;;37.58;44.34
74230;BME280;62589;12.568;99.958;2024-03-02T04:38:14;101006.81;;;37.54;44.78
74230;BME280;62589;12.568;99.958;2024-03-02T04:40:41;101008.00;;;37.53;45.74
74230;BME280;62589;12.568;99.958;2024-03-02T04:43:08;101018.84;;;37.51;45.75
74230;BME280;62589;12.568;99.958;2024-03-02T04:45:38;101009.09;;;37.66;45.20
74230;BME280;62589;12.568;99.958;2024-03-02T04:48:05;101007.53;;;37.62;44.79
74230;BME280;62589;12.568;99.958;2024-03-02T04:50:32;101007.53;;;37.62;44.70
74230;BME280;62589;12.568;99.958;2024-03-02T04:52:58;101002.28;;;37.64;44.37
74230;BME280;62589;12.568;99.958;2024-03-02T04:55:25;101005.50;;;37.62;44.80
74230;BME280;62589;12.568;99.958;2024-03-02T04:57:56;100990.81;;;37.51;44.55
74230;BME280;62589;12.568;99.958;2024-03-02T05:00:22;100987.56;;;37.56;45.56
74230;BME280;62589;12.568;99.958;2024-03-02T05:02:49;100989.63;;;37.52;45.59
74230;BME280;62589;12.568;99.958;2024-03-02T05:05:17;100982.03;;;37.49;45.40
74230;BME280;62589;12.568;99.958;2024-03-02T05:07:43;100976.59;;;37.35;44.53
74230;BME280;62589;12.568;99.958;2024-03-02T05:10:11;100975.00;;;37.34;45.81
74230;BME280;62589;12.568;99.958;2024-03-02T05:12:41;100966.56;;;37.37;45.53
74230;BME280;62589;12.568;99.958;2024-03-02T05:15:08;100967.41;;;37.31;45.11
74230;BME280;62589;12.568;99.958;2024-03-02T05:17:42;100969.34;;;37.41;45.47
74230;BME280;62589;12.568;99.958;2024-03-02T05:20:09;100976.28;;;37.22;45.02
74230;BME280;62589;12.568;99.958;2024-03-02T05:22:37;100955.13;;;37.17;45.31
74230;BME280;62589;12.568;99.958;2024-03-02T05:25:05;100957.25;;;37.03;45.04
74230;BME280;62589;12.568;99.958;2024-03-02T05:27:32;100958.19;;;36.86;44.10
74230;BME280;62589;12.568;99.958;2024-03-02T05:29:59;100957.34;;;36.92;44.66
74230;BME280;62589;12.568;99.958;2024-03-02T05:32:26;100944.19;;;36.89;45.15
74230;BME280;62589;12.568;99.958;2024-03-02T05:34:52;100962.81;;;37.06;45.61
74230;BME280;62589;12.568;99.958;2024-03-02T05:37:19;100951.97;;;37.12;44.80
74230;BME280;62589;12.568;99.958;2024-03-02T05:39:46;100949.84;;;37.27;43.86
74230;BME280;62589;12.568;99.958;2024-03-02T05:42:13;100943.41;;;37.33;44.61
74230;BME280;62589;12.568;99.958;2024-03-02T05:44:40;100933.38;;;37.36;45.35
74230;BME280;62589;12.568;99.958;2024-03-02T05:47:07;100933.28;;;37.43;44.54
74230;BME280;62589;12.568;99.958;2024-03-02T05:49:35;100936.13;;;36.98;44.88
74230;BME280;62589;12.568;99.958;2024-03-02T05:52:02;100943.59;;;37.08;44.03
74230;BME280;62589;12.568;99.958;2024-03-02T05:54:29;100937.56;;;37.13;44.85
74230;BME280;62589;12.568;99.958;2024-03-02T05:56:55;100934.41;;;37.08;42.41
74230;BME280;62589;12.568;99.958;2024-03-02T05:59:22;100927.25;;;37.03;43.52
74230;BME280;62589;12.568;99.958;2024-03-02T06:01:52;100923.97;;;37.15;42.79
74230;BME280;62589;12.568;99.958;2024-03-02T06:07:01;100906.31;;;37.22;43.48
74230;BME280;62589;12.568;99.958;2024-03-02T06:09:27;100906.31;;;37.22;42.33
74230;BME280;62589;12.568;99.958;2024-03-02T06:11:54;100913.41;;;37.34;43.38
74230;BME280;62589;12.568;99.958;2024-03-02T06:14:24;100899.00;;;37.32;43.73
74230;BME280;62589;12.568;99.958;2024-03-02T06:16:51;100899.81;;;37.32;41.01
74230;BME280;62589;12.568;99.958;2024-03-02T06:19:17;100896.59;;;37.34;42.45
74230;BME280;62589;12.568;99.958;2024-03-02T06:21:44;100893.34;;;37.39;42.90
74230;BME280;62589;12.568;99.958;2024-03-02T06:24:10;100887.84;;;37.28;42.47
74230;BME280;62589;12.568;99.958;2024-03-02T06:26:37;100889.34;;;37.40;42.37
74230;BME280;62589;12.568;99.958;2024-03-02T06:29:05;100890.06;;;37.44;41.32
74230;BME280;62589;12.568;99.958;2024-03-02T06:31:32;100878.00;;;37.50;40.75
74230;BME280;62589;12.568;99.958;2024-03-02T06:33:58;100891.44;;;37.63;41.30
74230;BME280;62589;12.568;99.958;2024-03-02T06:36:25;100884.31;;;37.58;40.96
74230;BME280;62589;12.568;99.958;2024-03-02T06:38:52;100880.97;;;37.70;40.55
74230;BME280;62589;12.568;99.958;2024-03-02T06:41:18;100872.19;;;37.68;38.94
74230;BME280;62589;12.568;99.958;2024-03-02T06:43:45;100861.72;;;37.72;37.24
74230;BME280;62589;12.568;99.958;2024-03-02T06:46:12;100861.97;;;37.51;39.15
74230;BME280;62589;12.568;99.958;2024-03-02T06:48:41;100858.84;;;37.45;37.73
74230;BME280;62589;12.568;99.958;2024-03-02T06:51:07;100861.91;;;37.21;37.76
74230;BME280;62589;12.568;99.958;2024-03-02T06:53:35;100848.22;;;37.30;38.58
74230;BME280;62589;12.568;99.958;2024-03-02T06:56:02;100858.25;;;37.27;38.70
74230;BME280;62589;12.568;99.958;2024-03-02T06:58:30;100841.88;;;37.26;40.55
74230;BME280;62589;12.568;99.958;2024-03-02T07:00:57;100836.22;;;37.29;38.85
74230;BME280;62589;12.568;99.958;2024-03-02T07:06:01;100821.38;;;37.36;38.77
74230;BME280;62589;12.568;99.958;2024-03-02T07:08:29;100818.53;;;37.39;37.41
74230;BME280;62589;12.568;99.958;2024-03-02T07:10:55;100814.38;;;37.51;38.22
74230;BME280;62589;12.568;99.958;2024-03-02T07:13:23;100815.94;;;37.52;37.99
74230;BME280;62589;12.568;99.958;2024-03-02T07:15:49;100812.72;;;37.54;38.37
74230;BME280;62589;12.568;99.958;2024-03-02T07:18:31;100813.34;;;37.38;37.96
74230;BME280;62589;12.568;99.958;2024-03-02T07:20:58;100807.22;;;37.46;38.00
74230;BME280;62589;12.568;99.958;2024-03-02T07:23:29;100805.53;;;37.53;37.16
74230;BME280;62589;12.568;99.958;2024-03-02T07:25:57;100803.41;;;37.33;38.24
74230;BME280;62589;12.568;99.958;2024-03-02T07:28:27;100794.19;;;37.33;37.56
74230;BME280;62589;12.568;99.958;2024-03-02T07:31:01;100790.44;;;37.43;38.62
74230;BME280;62589;12.568;99.958;2024-03-02T07:33:28;100796.34;;;37.52;38.72
74230;BME280;62589;12.568;99.958;2024-03-02T07:35:55;100787.66;;;37.43;38.86
74230;BME280;62589;12.568;99.958;2024-03-02T07:38:22;100777.13;;;36.86;39.11
74230;BME280;62589;12.568;99.958;2024-03-02T07:40:52;100772.88;;;37.08;38.20
74230;BME280;62589;12.568;99.958;2024-03-02T07:43:22;100775.81;;;37.32;37.28
74230;BME280;62589;12.568;99.958;2024-03-02T07:45:48;100768.66;;;37.27;37.92
74230;BME280;62589;12.568;99.958;2024-03-02T07:48:15;100763.03;;;37.31;37.29
74230;BME280;62589;12.568;99.958;2024-03-02T07:50:42;100764.91;;;37.41;38.54
74230;BME280;62589;12.568;99.958;2024-03-02T07:53:09;100761.06;;;37.28;38.62
74230;BME280;62589;12.568;99.958;2024-03-02T07:55:36;100763.78;;;37.35;39.05
74230;BME280;62589;12.568;99.958;2024-03-02T07:58:03;100757.59;;;37.16;40.34
74230;BME280;62589;12.568;99.958;2024-03-02T08:00:32;100758.66;;;37.26;41.09
74230;BME280;62589;12.568;99.958;2024-03-02T08:02:59;100745.50;;;37.23;41.69
74230;BME280;62589;12.568;99.958;2024-03-02T08:05:27;100748.06;;;37.10;42.38
74230;BME280;62589;12.568;99.958;2024-03-02T08:07:54;100738.84;;;37.10;41.94
74230;BME280;62589;12.568;99.958;2024-03-02T08:10:21;100737.50;;;36.91;42.11
74230;BME280;62589;12.568;99.958;2024-03-02T08:12:48;100740.63;;;36.97;43.21
74230;BME280;62589;12.568;99.958;2024-03-02T08:15:14;100720.22;;;36.59;44.09
74230;BME280;62589;12.568;99.958;2024-03-02T08:17:41;100717.31;;;36.73;43.98
74230;BME280;62589;12.568;99.958;2024-03-02T08:20:14;100719.75;;;37.01;43.94
74230;BME280;62589;12.568;99.958;2024-03-02T08:22:47;100714.16;;;37.01;43.80
74230;BME280;62589;12.568;99.958;2024-03-02T08:25:14;100718.19;;;37.00;43.46
74230;BME280;62589;12.568;99.958;2024-03-02T08:27:41;100706.97;;;36.66;44.88
74230;BME280;62589;12.568;99.958;2024-03-02T08:30:09;100706.88;;;36.77;45.46
74230;BME280;62589;12.568;99.958;2024-03-02T08:32:36;100705.75;;;36.67;46.04
74230;BME280;62589;12.568;99.958;2024-03-02T08:35:04;100697.47;;;36.94;44.65
74230;BME280;62589;12.568;99.958;2024-03-02T08:37:31;100695.06;;;36.96;44.54
74230;BME280;62589;12.568;99.958;2024-03-02T08:39:57;100706.78;;;36.84;44.56
74230;BME280;62589;12.568;99.958;2024-03-02T08:42:24;100701.63;;;36.79;44.96
74230;BME280;62589;12.568;99.958;2024-03-02T08:44:52;100698.13;;;36.75;46.32
74230;BME280;62589;12.568;99.958;2024-03-02T08:47:18;100695.56;;;36.88;46.07
74230;BME280;62589;12.568;99.958;2024-03-02T08:49:45;100677.69;;;36.78;45.49
74230;BME280;62589;12.568;99.958;2024-03-02T08:52:12;100678.63;;;36.64;46.74
74230;BME280;62589;12.568;99.958;2024-03-02T08:54:40;100679.22;;;36.45;46.66
74230;BME280;62589;12.568;99.958;2024-03-02T08:57:07;100674.22;;;36.63;45.97
74230;BME280;62589;12.568;99.958;2024-03-02T08:59:35;100670.19;;;36.68;46.42
74230;BME280;62589;12.568;99.958;2024-03-02T09:02:02;100665.94;;;36.56;44.72
74230;BME280;62589;12.568;99.958;2024-03-02T09:13:17;100654.19;;;36.68;44.36
74230;BME280;62589;12.568;99.958;2024-03-02T09:15:44;100655.88;;;36.59;44.01
74230;BME280;62589;12.568;99.958;2024-03-02T09:18:11;100659.97;;;36.54;44.93
74230;BME280;62589;12.568;99.958;2024-03-02T09:20:38;100657.59;;;36.53;43.94
74230;BME280;62589;12.568;99.958;2024-03-02T09:23:04;100658.63;;;36.66;44.50
74230;BME280;62589;12.568;99.958;2024-03-02T09:25:31;100658.28;;;36.60;44.63
74230;BME280;62589;12.568;99.958;2024-03-02T09:27:58;100664.75;;;36.54;44.83
74230;BME280;62589;12.568;99.958;2024-03-02T09:30:25;100656.47;;;36.43;46.11
74230;BME280;62589;12.568;99.958;2024-03-02T09:32:51;100665.59;;;36.06;45.56
74230;BME280;62589;12.568;99.958;2024-03-02T09:35:19;100663.84;;;36.26;46.08
74230;BME280;62589;12.568;99.958;2024-03-02T09:37:46;100662.91;;;36.40;44.47
74230;BME280;62589;12.568;99.958;2024-03-02T09:40:13;100673.94;;;36.54;44.73
74230;BME280;62589;12.568;99.958;2024-03-02T09:42:40;100667.63;;;36.46;44.87
74230;BME280;62589;12.568;99.958;2024-03-02T09:45:09;100656.50;;;36.39;45.09
74230;BME280;62589;12.568;99.958;2024-03-02T09:47:36;100660.78;;;36.51;45.55
74230;BME280;62589;12.568;99.958;2024-03-02T09:50:03;100655.81;;;36.32;45.71
74230;BME280;62589;12.568;99.958;2024-03-02T09:52:31;100664.06;;;36.42;45.99
74230;BME280;62589;12.568;99.958;2024-03-02T09:54:59;100660.38;;;36.53;45.70
74230;BME280;62589;12.568;99.958;2024-03-02T09:57:25;100665.06;;;36.25;45.50
74230;BME280;62589;12.568;99.958;2024-03-02T09:59:52;100673.75;;;36.34;45.97
74230;BME280;62589;12.568;99.958;2024-03-02T10:02:18;100665.16;;;36.11;47.14
74230;BME280;62589;12.568;99.958;2024-03-02T10:04:45;100673.03;;;36.23;46.57
74230;BME280;62589;12.568;99.958;2024-03-02T10:07:17;100663.63;;;36.06;47.05
74230;BME280;62589;12.568;99.958;2024-03-02T10:09:49;100665.97;;;36.11;47.18
74230;BME280;62589;12.568;99.958;2024-03-02T10:12:17;100666.59;;;36.33;47.09
74230;BME280;62589;12.568;99.958;2024-03-02T10:14:44;100679.03;;;36.25;46.78
74230;BME280;62589;12.568;99.958;2024-03-02T10:17:17;100674.66;;;36.24;45.64
74230;BME280;62589;12.568;99.958;2024-03-02T10:19:44;100676.22;;;36.29;45.74
74230;BME280;62589;12.568;99.958;2024-03-02T10:22:10;100674.22;;;36.26;45.47
74230;BME280;62589;12.568;99.958;2024-03-02T10:24:40;100673.13;;;36.16;44.92
74230;BME280;62589;12.568;99.958;2024-03-02T10:27:16;100665.94;;;36.15;45.95
74230;BME280;62589;12.568;99.958;2024-03-02T10:29:45;100686.63;;;36.21;46.02
74230;BME280;62589;12.568;99.958;2024-03-02T10:32:12;100671.13;;;36.17;45.77
74230;BME280;62589;12.568;99.958;2024-03-02T10:34:46;100671.53;;;36.15;46.06
74230;BME280;62589;12.568;99.958;2024-03-02T10:37:16;100678.81;;;36.02;46.51
74230;BME280;62589;12.568;99.958;2024-03-02T10:39:46;100679.19;;;36.04;46.86
74230;BME280;62589;12.568;99.958;2024-03-02T10:42:14;100674.38;;;36.08;46.25
74230;BME280;62589;12.568;99.958;2024-03-02T10:44:41;100669.53;;;36.15;46.12
74230;BME280;62589;12.568;99.958;2024-03-02T10:47:09;100675.47;;;36.17;46.74
74230;BME280;62589;12.568;99.958;2024-03-02T10:49:38;100673.03;;;36.27;46.55
74230;BME280;62589;12.568;99.958;2024-03-02T10:52:08;100675.44;;;36.25;45.26
74230;BME280;62589;12.568;99.958;2024-03-02T10:54:35;100677.94;;;36.12;44.58
74230;BME280;62589;12.568;99.958;2024-03-02T10:57:04;100667.84;;;36.22;44.61
74230;BME280;62589;12.568;99.958;2024-03-02T10:59:36;100675.00;;;36.30;44.46
74230;BME280;62589;12.568;99.958;2024-03-02T11:02:07;100681.81;;;36.22;44.63
74230;BME280;62589;12.568;99.958;2024-03-02T11:56:22;100724.25;;;36.13;43.45
74230;BME280;62589;12.568;99.958;2024-03-02T11:58:49;100745.44;;;36.07;43.66
74230;BME280;62589;12.568;99.958;2024-03-02T12:01:20;100741.56;;;35.94;44.30
74230;BME280;62589;12.568;99.958;2024-03-02T12:03:48;100745.22;;;35.84;44.80
74230;BME280;62589;12.568;99.958;2024-03-02T12:06:18;100749.91;;;35.97;44.88
74230;BME280;62589;12.568;99.958;2024-03-02T12:08:53;100742.78;;;35.93;45.11
74230;BME280;62589;12.568;99.958;2024-03-02T12:11:25;100753.13;;;35.96;45.09
74230;BME280;62589;12.568;99.958;2024-03-02T12:13:53;100755.09;;;35.99;45.32
74230;BME280;62589;12.568;99.958;2024-03-02T12:16:29;100758.81;;;35.78;45.64
74230;BME280;62589;12.568;99.958;2024-03-02T12:18:56;100754.81;;;35.79;46.16
74230;BME280;62589;12.568;99.958;2024-03-02T12:21:26;100769.16;;;35.85;46.04
74230;BME280;62589;12.568;99.958;2024-03-02T12:24:01;100758.06;;;35.70;46.46
74230;BME280;62589;12.568;99.958;2024-03-02T12:26:30;100770.78;;;35.78;46.28
74230;BME280;62589;12.568;99.958;2024-03-02T12:29:01;100757.22;;;35.77;46.23
74230;BME280;62589;12.568;99.958;2024-03-02T12:31:28;100772.00;;;35.74;46.33
74230;BME280;62589;12.568;99.958;2024-03-02T12:34:02;100773.25;;;35.66;46.63
74230;BME280;62589;12.568;99.958;2024-03-02T12:36:36;100777.22;;;35.68;46.70
74230;BME280;62589;12.568;99.958;2024-03-02T12:39:04;100772.44;;;35.65;46.99
74230;BME280;62589;12.568;99.958;2024-03-02T12:41:31;100774.44;;;35.68;46.89
74230;BME280;62589;12.568;99.958;2024-03-02T12:44:18;100776.03;;;35.66;46.92
74230;BME280;62589;12.568;99.958;2024-03-02T12:46:53;100784.00;;;35.67;46.77
74230;BME280;62589;12.568;99.958;2024-03-02T12:49:26;100792.38;;;35.67;47.16
74230;BME280;62589;12.568;99.958;2024-03-02T12:51:54;100787.63;;;35.64;47.10
74230;BME280;62589;12.568;99.958;2024-03-02T12:54:23;100790.78;;;35.66;47.60
74230;BME280;62589;12.568;99.958;2024-03-02T12:56:51;100786.81;;;35.64;47.21
74230;BME280;62589;12.568;99.958;2024-03-02T12:59:24;100800.38;;;35.65;47.09
74230;BME280;62589;12.568;99.958;2024-03-02T13:01:57;100798.78;;;35.64;47.25
74230;BME280;62589;12.568;99.958;2024-03-02T13:04:29;100809.16;;;35.67;47.35
74230;BME280;62589;12.568;99.958;2024-03-02T13:06:58;100803.56;;;35.67;47.39
74230;BME280;62589;12.568;99.958;2024-03-02T13:09:33;100805.16;;;35.68;47.53
74230;BME280;62589;12.568;99.958;2024-03-02T13:12:16;100807.16;;;35.68;47.62
74230;BME280;62589;12.568;99.958;2024-03-02T13:14:44;100815.53;;;35.68;47.77
74230;BME280;62589;12.568;99.958;2024-03-02T13:17:11;100817.50;;;35.71;47.92
74230;BME280;62589;12.568;99.958;2024-03-02T13:20:03;100825.91;;;35.71;47.58
74230;BME280;62589;12.568;99.958;2024-03-02T13:22:37;100824.34;;;35.59;48.38
74230;BME280;62589;12.568;99.958;2024-03-02T13:25:09;100828.31;;;35.62;48.21
74230;BME280;62589;12.568;99.958;2024-03-02T13:27:37;100835.16;;;35.54;48.49
74230;BME280;62589;12.568;99.958;2024-03-02T13:30:05;100818.81;;;35.45;49.20
74230;BME280;62589;12.568;99.958;2024-03-02T13:32:35;100824.41;;;35.45;49.27
74230;BME280;62589;12.568;99.958;2024-03-02T13:35:02;100831.59;;;35.46;49.22
74230;BME280;62589;12.568;99.958;2024-03-02T13:37:34;100837.13;;;35.57;49.31
74230;BME280;62589;12.568;99.958;2024-03-02T13:40:04;100836.00;;;35.40;49.90
74230;BME280;62589;12.568;99.958;2024-03-02T13:42:32;100848.78;;;35.23;50.47
74230;BME280;62589;12.568;99.958;2024-03-02T13:45:01;100866.31;;;35.24;50.59
74230;BME280;62589;12.568;99.958;2024-03-02T13:47:35;100860.38;;;35.11;50.96
74230;BME280;62589;12.568;99.958;2024-03-02T13:50:05;100861.16;;;35.19;50.56
74230;BME280;62589;12.568;99.958;2024-03-02T13:52:35;100865.13;;;35.18;50.98
74230;BME280;62589;12.568;99.958;2024-03-02T13:55:14;100863.97;;;34.97;51.88
74230;BME280;62589;12.568;99.958;2024-03-02T13:57:46;100864.78;;;34.94;51.63
74230;BME280;62589;12.568;99.958;2024-03-02T14:00:28;100869.16;;;35.02;51.58
74230;BME280;62589;12.568;99.958;2024-03-02T14:02:59;100882.72;;;35.00;51.86
74230;BME280;62589;12.568;99.958;2024-03-02T14:05:28;100872.75;;;34.96;51.92
74230;BME280;62589;12.568;99.958;2024-03-02T14:07:58;100876.72;;;34.98;52.00
74230;BME280;62589;12.568;99.958;2024-03-02T14:10:26;100890.28;;;35.03;51.78
74230;BME280;62589;12.568;99.958;2024-03-02T14:13:00;100888.69;;;35.02;51.81
74230;BME280;62589;12.568;99.958;2024-03-02T14:15:31;100894.28;;;34.95;52.19
74230;BME280;62589;12.568;99.958;2024-03-02T14:18:01;100899.06;;;34.98;52.04
74230;BME280;62589;12.568;99.958;2024-03-02T14:20:32;100902.25;;;35.00;51.98
74230;BME280;62589;12.568;99.958;2024-03-02T14:23:07;100923.75;;;34.96;52.71
74230;BME280;62589;12.568;99.958;2024-03-02T14:25:36;100910.22;;;34.98;52.29
74230;BME280;62589;12.568;99.958;2024-03-02T14:28:03;100924.56;;;34.97;52.40
74230;BME280;62589;12.568;99.958;2024-03-02T14:30:48;100927.34;;;34.97;52.46
74230;BME280;62589;12.568;99.958;2024-03-02T14:33:19;100931.72;;;34.94;52.33
74230;BME280;62589;12.568;99.958;2024-03-02T14:35:46;100938.13;;;34.95;52.88
74230;BME280;62589;12.568;99.958;2024-03-02T14:38:16;100922.97;;;34.92;52.83
74230;BME280;62589;12.568;99.958;2024-03-02T14:40:46;100938.94;;;34.88;53.43
74230;BME280;62589;12.568;99.958;2024-03-02T14:43:25;100932.94;;;34.86;52.76
74230;BME280;62589;12.568;99.958;2024-03-02T14:45:58;100950.09;;;34.88;52.92
74230;BME280;62589;12.568;99.958;2024-03-02T14:48:28;100956.06;;;34.90;52.96